sensor_id;sensor_type;location;lat;lon;timestamp;P1;durP1;ratioP1;P2;durP2;ratioP2
47764;SDS011;33529;49.242;8.670;2023-03-20T00:02:19;3.63;;;1.80;;
47764;SDS011;33529;49.242;8.670;2023-03-20T00:04:47;2.63;;;1.45;;
47764;SDS011;33529;49.242;8.670;2023-03-20T00:07:14;2.38;;;1.48;;
47764;SDS011;33529;49.242;8.670;2023-03-20T00:09:41;3.65;;;1.75;;
47764;SDS011;33529;49.242;8.670;2023-03-20T00:12:09;3.15;;;1.60;;
47764;SDS011;33529;49.242;8.670;2023-03-20T00:14:40;3.40;;;1.52;;
47764;SDS011;33529;49.242;8.670;2023-03-20T00:17:10;2.50;;;1.40;;
47764;SDS011;33529;49.242;8.670;2023-03-20T00:19:43;2.65;;;1.50;;
47764;SDS011;33529;49.242;8.670;2023-03-20T00:22:10;3.30;;;1.45;;
47764;SDS011;33529;49.242;8.670;2023-03-20T00:24:37;2.05;;;1.20;;
47764;SDS011;33529;49.242;8.670;2023-03-20T00:27:04;2.10;;;1.23;;
47764;SDS011;33529;49.242;8.670;2023-03-20T00:29:31;2.75;;;1.50;;
47764;SDS011;33529;49.242;8.670;2023-03-20T00:31:59;2.80;;;1.48;;
47764;SDS011;33529;49.242;8.670;2023-03-20T00:34:26;1.95;;;1.20;;
47764;SDS011;33529;49.242;8.670;2023-03-20T00:36:57;2.92;;;1.13;;
47764;SDS011;33529;49.242;8.670;2023-03-20T00:39:26;2.70;;;1.48;;
47764;SDS011;33529;49.242;8.670;2023-03-20T00:41:53;2.15;;;1.45;;
47764;SDS011;33529;49.242;8.670;2023-03-20T00:44:29;3.00;;;1.70;;
47764;SDS011;33529;49.242;8.670;2023-03-20T00:47:00;2.90;;;1.40;;
47764;SDS011;33529;49.242;8.670;2023-03-20T00:49:34;2.78;;;1.25;;
47764;SDS011;33529;49.242;8.670;2023-03-20T00:52:01;2.67;;;1.40;;
47764;SDS011;33529;49.242;8.670;2023-03-20T00:54:28;4.00;;;1.23;;
47764;SDS011;33529;49.242;8.670;2023-03-20T00:57:59;2.15;;;1.02;;
47764;SDS011;33529;49.242;8.670;2023-03-20T01:00:05;2.22;;;1.20;;
47764;SDS011;33529;49.242;8.670;2023-03-20T01:03:00;3.40;;;1.73;;
47764;SDS011;33529;49.242;8.670;2023-03-20T01:05:30;2.37;;;1.30;;
47764;SDS011;33529;49.242;8.670;2023-03-20T01:07:57;2.97;;;1.38;;
47764;SDS011;33529;49.242;8.670;2023-03-20T01:10:26;1.75;;;1.15;;
47764;SDS011;33529;49.242;8.670;2023-03-20T01:12:57;2.13;;;1.13;;
47764;SDS011;33529;49.242;8.670;2023-03-20T01:15:29;2.85;;;1.33;;
47764;SDS011;33529;49.242;8.670;2023-03-20T01:17:58;2.30;;;1.02;;
47764;SDS011;33529;49.242;8.670;2023-03-20T01:20:26;2.92;;;1.23;;
47764;SDS011;33529;49.242;8.670;2023-03-20T01:22:54;2.05;;;1.10;;
47764;SDS011;33529;49.242;8.670;2023-03-20T01:25:22;1.90;;;1.00;;
47764;SDS011;33529;49.242;8.670;2023-03-20T01:27:50;2.10;;;1.13;;
47764;SDS011;33529;49.242;8.670;2023-03-20T01:30:21;2.35;;;1.00;;
47764;SDS011;33529;49.242;8.670;2023-03-20T01:32:50;2.72;;;1.40;;
47764;SDS011;33529;49.242;8.670;2023-03-20T01:35:19;2.30;;;1.08;;
47764;SDS011;33529;49.242;8.670;2023-03-20T01:37:48;2.22;;;1.20;;
47764;SDS011;33529;49.242;8.670;2023-03-20T01:40:33;2.10;;;1.20;;
47764;SDS011;33529;49.242;8.670;2023-03-20T01:43:13;2.15;;;1.05;;
47764;SDS011;33529;49.242;8.670;2023-03-20T01:45:48;1.65;;;1.02;;
47764;SDS011;33529;49.242;8.670;2023-03-20T01:48:19;3.70;;;1.30;;
47764;SDS011;33529;49.242;8.670;2023-03-20T01:50:46;3.80;;;1.52;;
47764;SDS011;33529;49.242;8.670;2023-03-20T01:53:19;2.25;;;1.08;;
47764;SDS011;33529;49.242;8.670;2023-03-20T01:55:55;1.90;;;1.00;;
47764;SDS011;33529;49.242;8.670;2023-03-20T01:58:32;2.63;;;1.30;;
47764;SDS011;33529;49.242;8.670;2023-03-20T02:01:04;2.72;;;1.35;;
47764;SDS011;33529;49.242;8.670;2023-03-20T02:03:34;2.05;;;1.30;;
47764;SDS011;33529;49.242;8.670;2023-03-20T02:06:13;2.45;;;1.00;;
47764;SDS011;33529;49.242;8.670;2023-03-20T02:08:58;2.90;;;1.30;;
47764;SDS011;33529;49.242;8.670;2023-03-20T02:11:30;2.58;;;1.67;;
47764;SDS011;33529;49.242;8.670;2023-03-20T02:13:57;1.75;;;0.95;;
47764;SDS011;33529;49.242;8.670;2023-03-20T02:16:32;2.30;;;1.25;;
47764;SDS011;33529;49.242;8.670;2023-03-20T02:19:22;2.47;;;1.20;;
47764;SDS011;33529;49.242;8.670;2023-03-20T02:38:30;2.85;;;1.50;;
47764;SDS011;33529;49.242;8.670;2023-03-20T02:41:10;3.33;;;1.50;;
47764;SDS011;33529;49.242;8.670;2023-03-20T02:49:20;2.03;;;1.20;;
47764;SDS011;33529;49.242;8.670;2023-03-20T02:52:03;2.78;;;1.52;;
47764;SDS011;33529;49.242;8.670;2023-03-20T02:54:47;3.33;;;1.60;;
47764;SDS011;33529;49.242;8.670;2023-03-20T03:00:22;2.53;;;1.55;;
47764;SDS011;33529;49.242;8.670;2023-03-20T03:03:14;3.25;;;1.67;;
47764;SDS011;33529;49.242;8.670;2023-03-20T03:05:53;2.92;;;1.70;;
47764;SDS011;33529;49.242;8.670;2023-03-20T03:08:25;2.40;;;1.40;;
47764;SDS011;33529;49.242;8.670;2023-03-20T03:10:58;2.22;;;1.38;;
47764;SDS011;33529;49.242;8.670;2023-03-20T03:13:30;3.08;;;1.80;;
47764;SDS011;33529;49.242;8.670;2023-03-20T03:18:49;2.97;;;1.38;;
47764;SDS011;33529;49.242;8.670;2023-03-20T03:21:23;2.75;;;1.52;;
47764;SDS011;33529;49.242;8.670;2023-03-20T03:23:51;2.55;;;1.40;;
47764;SDS011;33529;49.242;8.670;2023-03-20T03:26:20;1.65;;;1.20;;
47764;SDS011;33529;49.242;8.670;2023-03-20T03:28:58;3.40;;;1.60;;
47764;SDS011;33529;49.242;8.670;2023-03-20T03:31:27;2.90;;;1.48;;
47764;SDS011;33529;49.242;8.670;2023-03-20T03:33:56;2.80;;;1.60;;
47764;SDS011;33529;49.242;8.670;2023-03-20T03:36:34;3.00;;;1.58;;
47764;SDS011;33529;49.242;8.670;2023-03-20T03:39:27;3.28;;;1.70;;
47764;SDS011;33529;49.242;8.670;2023-03-20T03:45:16;4.82;;;2.15;;
47764;SDS011;33529;49.242;8.670;2023-03-20T03:47:54;3.83;;;2.15;;
47764;SDS011;33529;49.242;8.670;2023-03-20T03:50:30;3.58;;;1.73;;
47764;SDS011;33529;49.242;8.670;2023-03-20T03:53:04;3.72;;;2.00;;
47764;SDS011;33529;49.242;8.670;2023-03-20T03:55:37;4.05;;;1.98;;
47764;SDS011;33529;49.242;8.670;2023-03-20T03:58:10;4.60;;;2.17;;
47764;SDS011;33529;49.242;8.670;2023-03-20T04:00:49;3.78;;;1.90;;
47764;SDS011;33529;49.242;8.670;2023-03-20T04:03:20;2.75;;;1.88;;
47764;SDS011;33529;49.242;8.670;2023-03-20T04:05:50;2.85;;;1.58;;
47764;SDS011;33529;49.242;8.670;2023-03-20T04:08:20;3.63;;;1.63;;
47764;SDS011;33529;49.242;8.670;2023-03-20T04:10:47;4.47;;;2.03;;
47764;SDS011;33529;49.242;8.670;2023-03-20T04:13:13;4.18;;;2.10;;
47764;SDS011;33529;49.242;8.670;2023-03-20T04:15:41;4.82;;;2.72;;
47764;SDS011;33529;49.242;8.670;2023-03-20T04:18:13;4.65;;;2.53;;
47764;SDS011;33529;49.242;8.670;2023-03-20T04:20:43;5.18;;;3.45;;
47764;SDS011;33529;49.242;8.670;2023-03-20T04:23:12;4.97;;;2.78;;
47764;SDS011;33529;49.242;8.670;2023-03-20T04:25:39;3.60;;;2.15;;
47764;SDS011;33529;49.242;8.670;2023-03-20T04:28:06;4.90;;;2.60;;
47764;SDS011;33529;49.242;8.670;2023-03-20T04:30:39;5.55;;;3.08;;
47764;SDS011;33529;49.242;8.670;2023-03-20T04:33:16;4.03;;;2.53;;
47764;SDS011;33529;49.242;8.670;2023-03-20T04:35:59;5.35;;;2.90;;
47764;SDS011;33529;49.242;8.670;2023-03-20T04:38:26;5.45;;;2.95;;
47764;SDS011;33529;49.242;8.670;2023-03-20T04:40:53;4.82;;;2.88;;
47764;SDS011;33529;49.242;8.670;2023-03-20T04:43:21;4.88;;;2.63;;
47764;SDS011;33529;49.242;8.670;2023-03-20T04:45:48;5.43;;;3.03;;
47764;SDS011;33529;49.242;8.670;2023-03-20T04:48:14;6.95;;;3.60;;
47764;SDS011;33529;49.242;8.670;2023-03-20T04:50:41;4.63;;;2.80;;
47764;SDS011;33529;49.242;8.670;2023-03-20T04:53:12;5.55;;;3.20;;
47764;SDS011;33529;49.242;8.670;2023-03-20T04:55:40;5.75;;;3.38;;
47764;SDS011;33529;49.242;8.670;2023-03-20T04:58:09;5.55;;;2.67;;
47764;SDS011;33529;49.242;8.670;2023-03-20T05:00:36;4.93;;;2.70;;
47764;SDS011;33529;49.242;8.670;2023-03-20T05:03:04;5.57;;;3.10;;
47764;SDS011;33529;49.242;8.670;2023-03-20T05:05:30;5.25;;;2.95;;
47764;SDS011;33529;49.242;8.670;2023-03-20T05:07:58;5.85;;;3.50;;
47764;SDS011;33529;49.242;8.670;2023-03-20T05:10:31;5.55;;;3.22;;
47764;SDS011;33529;49.242;8.670;2023-03-20T05:13:04;4.38;;;2.65;;
47764;SDS011;33529;49.242;8.670;2023-03-20T05:15:48;7.40;;;3.38;;
47764;SDS011;33529;49.242;8.670;2023-03-20T05:18:33;6.80;;;3.00;;
47764;SDS011;33529;49.242;8.670;2023-03-20T05:21:32;8.10;;;3.75;;
47764;SDS011;33529;49.242;8.670;2023-03-20T05:24:08;6.47;;;3.38;;
47764;SDS011;33529;49.242;8.670;2023-03-20T05:26:53;8.27;;;4.13;;
47764;SDS011;33529;49.242;8.670;2023-03-20T05:29:50;7.13;;;4.28;;
47764;SDS011;33529;49.242;8.670;2023-03-20T05:32:26;7.47;;;4.28;;
47764;SDS011;33529;49.242;8.670;2023-03-20T05:35:04;7.40;;;3.85;;
47764;SDS011;33529;49.242;8.670;2023-03-20T05:37:51;6.38;;;3.85;;
47764;SDS011;33529;49.242;8.670;2023-03-20T05:40:27;8.48;;;4.47;;
47764;SDS011;33529;49.242;8.670;2023-03-20T05:43:20;8.85;;;4.72;;
47764;SDS011;33529;49.242;8.670;2023-03-20T05:46:08;7.78;;;4.32;;
47764;SDS011;33529;49.242;8.670;2023-03-20T05:48:59;9.02;;;5.47;;
47764;SDS011;33529;49.242;8.670;2023-03-20T05:51:49;6.80;;;4.53;;
47764;SDS011;33529;49.242;8.670;2023-03-20T05:54:26;7.38;;;4.45;;
47764;SDS011;33529;49.242;8.670;2023-03-20T05:57:12;8.68;;;4.68;;
47764;SDS011;33529;49.242;8.670;2023-03-20T06:00:02;7.40;;;4.63;;
47764;SDS011;33529;49.242;8.670;2023-03-20T06:02:54;10.00;;;5.70;;
47764;SDS011;33529;49.242;8.670;2023-03-20T06:05:43;8.40;;;4.63;;
47764;SDS011;33529;49.242;8.670;2023-03-20T06:08:11;7.55;;;4.25;;
47764;SDS011;33529;49.242;8.670;2023-03-20T06:10:38;9.25;;;5.00;;
47764;SDS011;33529;49.242;8.670;2023-03-20T06:13:09;8.98;;;4.82;;
47764;SDS011;33529;49.242;8.670;2023-03-20T06:15:37;9.25;;;4.80;;
47764;SDS011;33529;49.242;8.670;2023-03-20T06:18:12;8.32;;;5.05;;
47764;SDS011;33529;49.242;8.670;2023-03-20T06:20:41;6.00;;;3.90;;
47764;SDS011;33529;49.242;8.670;2023-03-20T06:23:08;10.73;;;5.47;;
47764;SDS011;33529;49.242;8.670;2023-03-20T06:25:35;8.98;;;4.85;;
47764;SDS011;33529;49.242;8.670;2023-03-20T06:28:03;9.73;;;4.82;;
47764;SDS011;33529;49.242;8.670;2023-03-20T06:30:30;8.07;;;5.00;;
47764;SDS011;33529;49.242;8.670;2023-03-20T06:32:57;8.38;;;5.03;;
47764;SDS011;33529;49.242;8.670;2023-03-20T06:35:32;7.05;;;4.35;;
47764;SDS011;33529;49.242;8.670;2023-03-20T06:38:00;8.40;;;4.85;;
47764;SDS011;33529;49.242;8.670;2023-03-20T06:40:27;7.10;;;4.30;;
47764;SDS011;33529;49.242;8.670;2023-03-20T06:42:54;8.88;;;4.88;;
47764;SDS011;33529;49.242;8.670;2023-03-20T06:45:23;10.13;;;5.13;;
47764;SDS011;33529;49.242;8.670;2023-03-20T06:47:50;9.25;;;5.25;;
47764;SDS011;33529;49.242;8.670;2023-03-20T06:50:17;10.05;;;5.55;;
47764;SDS011;33529;49.242;8.670;2023-03-20T06:52:44;8.68;;;5.82;;
47764;SDS011;33529;49.242;8.670;2023-03-20T06:55:38;9.65;;;5.00;;
47764;SDS011;33529;49.242;8.670;2023-03-20T06:58:04;8.35;;;5.22;;
47764;SDS011;33529;49.242;8.670;2023-03-20T07:00:33;9.82;;;5.50;;
47764;SDS011;33529;49.242;8.670;2023-03-20T07:03:03;8.98;;;5.20;;
47764;SDS011;33529;49.242;8.670;2023-03-20T07:05:30;11.30;;;5.80;;
47764;SDS011;33529;49.242;8.670;2023-03-20T07:07:58;10.00;;;6.20;;
47764;SDS011;33529;49.242;8.670;2023-03-20T07:10:26;10.88;;;6.13;;
47764;SDS011;33529;49.242;8.670;2023-03-20T07:12:54;10.90;;;5.63;;
47764;SDS011;33529;49.242;8.670;2023-03-20T07:15:21;10.57;;;6.32;;
47764;SDS011;33529;49.242;8.670;2023-03-20T07:17:48;11.25;;;5.85;;
47764;SDS011;33529;49.242;8.670;2023-03-20T07:20:15;9.20;;;5.60;;
47764;SDS011;33529;49.242;8.670;2023-03-20T07:22:44;10.02;;;5.70;;
47764;SDS011;33529;49.242;8.670;2023-03-20T07:25:20;9.40;;;5.78;;
47764;SDS011;33529;49.242;8.670;2023-03-20T07:28:05;10.00;;;5.28;;
47764;SDS011;33529;49.242;8.670;2023-03-20T07:30:34;11.18;;;6.03;;
47764;SDS011;33529;49.242;8.670;2023-03-20T07:33:02;9.45;;;5.55;;
47764;SDS011;33529;49.242;8.670;2023-03-20T07:35:31;6.13;;;4.65;;
47764;SDS011;33529;49.242;8.670;2023-03-20T07:37:58;8.25;;;5.47;;
47764;SDS011;33529;49.242;8.670;2023-03-20T07:40:25;9.88;;;5.68;;
47764;SDS011;33529;49.242;8.670;2023-03-20T07:42:55;12.75;;;5.95;;
47764;SDS011;33529;49.242;8.670;2023-03-20T07:45:50;9.45;;;5.80;;
47764;SDS011;33529;49.242;8.670;2023-03-20T07:48:18;10.77;;;6.13;;
47764;SDS011;33529;49.242;8.670;2023-03-20T07:50:44;12.07;;;5.50;;
47764;SDS011;33529;49.242;8.670;2023-03-20T07:53:11;7.65;;;5.10;;
47764;SDS011;33529;49.242;8.670;2023-03-20T07:55:38;11.85;;;5.80;;
47764;SDS011;33529;49.242;8.670;2023-03-20T07:58:08;11.32;;;5.43;;
47764;SDS011;33529;49.242;8.670;2023-03-20T08:00:35;10.75;;;5.32;;
47764;SDS011;33529;49.242;8.670;2023-03-20T08:03:02;10.35;;;5.10;;
47764;SDS011;33529;49.242;8.670;2023-03-20T08:05:29;10.88;;;6.55;;
47764;SDS011;33529;49.242;8.670;2023-03-20T08:07:56;8.70;;;5.18;;
47764;SDS011;33529;49.242;8.670;2023-03-20T08:10:23;12.15;;;6.68;;
47764;SDS011;33529;49.242;8.670;2023-03-20T08:12:50;10.63;;;5.50;;
47764;SDS011;33529;49.242;8.670;2023-03-20T08:15:16;9.35;;;4.90;;
47764;SDS011;33529;49.242;8.670;2023-03-20T08:17:43;11.15;;;5.95;;
47764;SDS011;33529;49.242;8.670;2023-03-20T08:20:11;11.15;;;5.95;;
47764;SDS011;33529;49.242;8.670;2023-03-20T08:22:39;12.20;;;5.57;;
47764;SDS011;33529;49.242;8.670;2023-03-20T08:25:08;11.15;;;5.55;;
47764;SDS011;33529;49.242;8.670;2023-03-20T08:27:35;11.77;;;5.45;;
47764;SDS011;33529;49.242;8.670;2023-03-20T08:30:04;12.18;;;5.93;;
47764;SDS011;33529;49.242;8.670;2023-03-20T08:32:31;10.73;;;6.05;;
47764;SDS011;33529;49.242;8.670;2023-03-20T08:34:57;10.48;;;6.00;;
47764;SDS011;33529;49.242;8.670;2023-03-20T08:37:25;13.05;;;6.63;;
47764;SDS011;33529;49.242;8.670;2023-03-20T08:39:51;12.25;;;6.38;;
47764;SDS011;33529;49.242;8.670;2023-03-20T08:42:18;13.80;;;6.60;;
47764;SDS011;33529;49.242;8.670;2023-03-20T08:44:45;16.17;;;7.28;;
47764;SDS011;33529;49.242;8.670;2023-03-20T08:47:13;14.70;;;7.05;;
47764;SDS011;33529;49.242;8.670;2023-03-20T08:49:41;14.32;;;7.25;;
47764;SDS011;33529;49.242;8.670;2023-03-20T08:52:08;14.82;;;7.10;;
47764;SDS011;33529;49.242;8.670;2023-03-20T08:54:35;13.05;;;6.88;;
47764;SDS011;33529;49.242;8.670;2023-03-20T08:57:02;12.60;;;6.78;;
47764;SDS011;33529;49.242;8.670;2023-03-20T08:59:29;10.93;;;6.80;;
47764;SDS011;33529;49.242;8.670;2023-03-20T09:01:56;10.45;;;5.15;;
47764;SDS011;33529;49.242;8.670;2023-03-20T09:04:23;11.38;;;6.07;;
47764;SDS011;33529;49.242;8.670;2023-03-20T09:06:50;10.13;;;5.22;;
47764;SDS011;33529;49.242;8.670;2023-03-20T09:09:17;11.70;;;6.03;;
47764;SDS011;33529;49.242;8.670;2023-03-20T09:11:46;7.68;;;5.20;;
47764;SDS011;33529;49.242;8.670;2023-03-20T09:14:13;11.25;;;6.10;;
47764;SDS011;33529;49.242;8.670;2023-03-20T09:16:40;9.32;;;5.47;;
47764;SDS011;33529;49.242;8.670;2023-03-20T09:19:07;10.32;;;5.07;;
47764;SDS011;33529;49.242;8.670;2023-03-20T09:21:33;11.05;;;5.43;;
47764;SDS011;33529;49.242;8.670;2023-03-20T09:24:00;10.60;;;5.80;;
47764;SDS011;33529;49.242;8.670;2023-03-20T09:26:27;10.05;;;5.95;;
47764;SDS011;33529;49.242;8.670;2023-03-20T09:28:54;8.85;;;5.30;;
47764;SDS011;33529;49.242;8.670;2023-03-20T09:31:21;10.25;;;5.00;;
47764;SDS011;33529;49.242;8.670;2023-03-20T09:33:48;8.75;;;4.45;;
47764;SDS011;33529;49.242;8.670;2023-03-20T09:36:15;10.60;;;5.65;;
47764;SDS011;33529;49.242;8.670;2023-03-20T09:38:42;10.30;;;4.80;;
47764;SDS011;33529;49.242;8.670;2023-03-20T09:41:12;10.45;;;4.95;;
47764;SDS011;33529;49.242;8.670;2023-03-20T09:43:50;8.18;;;4.25;;
47764;SDS011;33529;49.242;8.670;2023-03-20T09:46:38;8.82;;;4.05;;
47764;SDS011;33529;49.242;8.670;2023-03-20T09:55:34;10.52;;;4.88;;
47764;SDS011;33529;49.242;8.670;2023-03-20T09:58:09;7.88;;;4.05;;
47764;SDS011;33529;49.242;8.670;2023-03-20T10:00:44;10.20;;;4.20;;
47764;SDS011;33529;49.242;8.670;2023-03-20T10:03:23;6.70;;;3.90;;
47764;SDS011;33529;49.242;8.670;2023-03-20T10:06:02;6.43;;;3.65;;
47764;SDS011;33529;49.242;8.670;2023-03-20T10:08:34;5.85;;;4.25;;
47764;SDS011;33529;49.242;8.670;2023-03-20T10:18:37;7.90;;;4.53;;
47764;SDS011;33529;49.242;8.670;2023-03-20T10:21:15;5.93;;;3.38;;
47764;SDS011;33529;49.242;8.670;2023-03-20T10:24:01;6.53;;;3.13;;
47764;SDS011;33529;49.242;8.670;2023-03-20T10:26:35;8.50;;;3.90;;
47764;SDS011;33529;49.242;8.670;2023-03-20T10:29:05;6.50;;;3.15;;
47764;SDS011;33529;49.242;8.670;2023-03-20T10:31:42;6.55;;;3.97;;
47764;SDS011;33529;49.242;8.670;2023-03-20T10:34:19;6.68;;;3.30;;
47764;SDS011;33529;49.242;8.670;2023-03-20T10:42:43;5.40;;;3.03;;
47764;SDS011;33529;49.242;8.670;2023-03-20T10:45:18;6.07;;;2.55;;
47764;SDS011;33529;49.242;8.670;2023-03-20T10:47:59;5.95;;;3.70;;
47764;SDS011;33529;49.242;8.670;2023-03-20T10:50:34;5.85;;;3.13;;
47764;SDS011;33529;49.242;8.670;2023-03-20T10:53:07;5.97;;;3.25;;
47764;SDS011;33529;49.242;8.670;2023-03-20T10:55:36;5.85;;;2.90;;
47764;SDS011;33529;49.242;8.670;2023-03-20T11:00:43;7.50;;;3.45;;
47764;SDS011;33529;49.242;8.670;2023-03-20T11:03:21;5.25;;;2.63;;
47764;SDS011;33529;49.242;8.670;2023-03-20T11:05:52;7.63;;;3.22;;
47764;SDS011;33529;49.242;8.670;2023-03-20T11:08:36;5.93;;;3.10;;
47764;SDS011;33529;49.242;8.670;2023-03-20T11:11:05;4.72;;;2.45;;
47764;SDS011;33529;49.242;8.670;2023-03-20T11:13:33;4.45;;;2.35;;
47764;SDS011;33529;49.242;8.670;2023-03-20T11:19:05;6.63;;;2.35;;
47764;SDS011;33529;49.242;8.670;2023-03-20T11:21:43;6.03;;;2.92;;
47764;SDS011;33529;49.242;8.670;2023-03-20T11:24:21;5.28;;;3.03;;
47764;SDS011;33529;49.242;8.670;2023-03-20T11:27:04;4.88;;;2.20;;
47764;SDS011;33529;49.242;8.670;2023-03-20T11:29:33;4.65;;;2.17;;
47764;SDS011;33529;49.242;8.670;2023-03-20T11:32:14;5.40;;;2.45;;
47764;SDS011;33529;49.242;8.670;2023-03-20T11:34:53;3.67;;;1.73;;
47764;SDS011;33529;49.242;8.670;2023-03-20T11:37:28;3.25;;;1.92;;
47764;SDS011;33529;49.242;8.670;2023-03-20T11:40:00;4.63;;;1.77;;
47764;SDS011;33529;49.242;8.670;2023-03-20T11:42:39;6.43;;;2.72;;
47764;SDS011;33529;49.242;8.670;2023-03-20T11:45:41;4.13;;;1.95;;
47764;SDS011;33529;49.242;8.670;2023-03-20T11:48:15;4.55;;;1.85;;
47764;SDS011;33529;49.242;8.670;2023-03-20T11:50:58;4.85;;;2.53;;
47764;SDS011;33529;49.242;8.670;2023-03-20T11:53:31;3.35;;;1.60;;
47764;SDS011;33529;49.242;8.670;2023-03-20T11:56:11;3.97;;;2.00;;
47764;SDS011;33529;49.242;8.670;2023-03-20T11:58:56;3.70;;;1.33;;
47764;SDS011;33529;49.242;8.670;2023-03-20T12:01:27;2.13;;;1.30;;
47764;SDS011;33529;49.242;8.670;2023-03-20T12:06:49;4.00;;;1.65;;
47764;SDS011;33529;49.242;8.670;2023-03-20T12:09:36;2.72;;;1.42;;
47764;SDS011;33529;49.242;8.670;2023-03-20T12:12:15;2.67;;;1.38;;
47764;SDS011;33529;49.242;8.670;2023-03-20T12:28:26;2.78;;;1.23;;
47764;SDS011;33529;49.242;8.670;2023-03-20T12:36:17;4.03;;;1.73;;
47764;SDS011;33529;49.242;8.670;2023-03-20T12:38:50;2.58;;;1.30;;
47764;SDS011;33529;49.242;8.670;2023-03-20T12:41:25;3.08;;;1.30;;
47764;SDS011;33529;49.242;8.670;2023-03-20T12:49:20;2.58;;;0.95;;
47764;SDS011;33529;49.242;8.670;2023-03-20T12:55:33;1.67;;;0.90;;
47764;SDS011;33529;49.242;8.670;2023-03-20T12:58:06;1.75;;;0.70;;
47764;SDS011;33529;49.242;8.670;2023-03-20T13:11:41;2.22;;;0.95;;
47764;SDS011;33529;49.242;8.670;2023-03-20T13:17:12;1.67;;;0.90;;
47764;SDS011;33529;49.242;8.670;2023-03-20T13:22:19;3.00;;;0.90;;
47764;SDS011;33529;49.242;8.670;2023-03-20T13:25:00;2.05;;;1.08;;
47764;SDS011;33529;49.242;8.670;2023-03-20T13:27:55;2.72;;;1.30;;
47764;SDS011;33529;49.242;8.670;2023-03-20T13:30:38;3.50;;;1.20;;
47764;SDS011;33529;49.242;8.670;2023-03-20T13:36:37;3.08;;;1.30;;
47764;SDS011;33529;49.242;8.670;2023-03-20T13:39:30;2.33;;;0.95;;
47764;SDS011;33529;49.242;8.670;2023-03-20T13:42:05;2.60;;;1.20;;
47764;SDS011;33529;49.242;8.670;2023-03-20T13:44:39;2.90;;;1.40;;
47764;SDS011;33529;49.242;8.670;2023-03-20T13:47:12;2.05;;;0.95;;
47764;SDS011;33529;49.242;8.670;2023-03-20T13:52:41;2.80;;;1.30;;
47764;SDS011;33529;49.242;8.670;2023-03-20T13:55:23;1.63;;;1.10;;
47764;SDS011;33529;49.242;8.670;2023-03-20T13:58:16;2.50;;;1.20;;
47764;SDS011;33529;49.242;8.670;2023-03-20T14:03:51;3.20;;;1.45;;
47764;SDS011;33529;49.242;8.670;2023-03-20T14:09:25;2.47;;;1.00;;
47764;SDS011;33529;49.242;8.670;2023-03-20T14:11:53;2.30;;;0.90;;
47764;SDS011;33529;49.242;8.670;2023-03-20T14:19:41;2.65;;;1.30;;
47764;SDS011;33529;49.242;8.670;2023-03-20T14:22:13;2.78;;;1.38;;
47764;SDS011;33529;49.242;8.670;2023-03-20T14:24:45;1.98;;;0.90;;
47764;SDS011;33529;49.242;8.670;2023-03-20T14:27:21;1.40;;;0.80;;
47764;SDS011;33529;49.242;8.670;2023-03-20T14:30:43;1.75;;;0.75;;
47764;SDS011;33529;49.242;8.670;2023-03-20T14:33:05;1.48;;;0.63;;
47764;SDS011;33529;49.242;8.670;2023-03-20T14:35:49;1.90;;;0.65;;
47764;SDS011;33529;49.242;8.670;2023-03-20T14:46:33;1.38;;;0.63;;
47764;SDS011;33529;49.242;8.670;2023-03-20T14:57:48;1.67;;;0.80;;
47764;SDS011;33529;49.242;8.670;2023-03-20T15:00:23;1.40;;;0.63;;
47764;SDS011;33529;49.242;8.670;2023-03-20T15:02:53;1.95;;;0.77;;
47764;SDS011;33529;49.242;8.670;2023-03-20T15:05:32;1.85;;;0.75;;
47764;SDS011;33529;49.242;8.670;2023-03-20T15:08:18;2.20;;;1.08;;
47764;SDS011;33529;49.242;8.670;2023-03-20T15:10:50;1.17;;;0.60;;
47764;SDS011;33529;49.242;8.670;2023-03-20T15:13:19;2.40;;;0.77;;
47764;SDS011;33529;49.242;8.670;2023-03-20T15:15:53;1.55;;;0.50;;
47764;SDS011;33529;49.242;8.670;2023-03-20T15:18:22;0.95;;;0.60;;
47764;SDS011;33529;49.242;8.670;2023-03-20T15:20:51;1.95;;;0.52;;
47764;SDS011;33529;49.242;8.670;2023-03-20T15:23:20;1.95;;;0.85;;
47764;SDS011;33529;49.242;8.670;2023-03-20T15:25:47;1.60;;;0.85;;
47764;SDS011;33529;49.242;8.670;2023-03-20T15:28:18;1.23;;;0.70;;
47764;SDS011;33529;49.242;8.670;2023-03-20T15:30:52;1.55;;;0.60;;
47764;SDS011;33529;49.242;8.670;2023-03-20T15:33:44;2.60;;;1.00;;
47764;SDS011;33529;49.242;8.670;2023-03-20T15:36:15;1.13;;;0.60;;
47764;SDS011;33529;49.242;8.670;2023-03-20T15:38:44;1.63;;;0.75;;
47764;SDS011;33529;49.242;8.670;2023-03-20T15:41:22;1.25;;;0.68;;
47764;SDS011;33529;49.242;8.670;2023-03-20T15:46:49;1.63;;;0.63;;
47764;SDS011;33529;49.242;8.670;2023-03-20T15:49:23;1.77;;;0.80;;
47764;SDS011;33529;49.242;8.670;2023-03-20T15:51:51;3.38;;;1.27;;
47764;SDS011;33529;49.242;8.670;2023-03-20T15:54:19;2.83;;;1.45;;
47764;SDS011;33529;49.242;8.670;2023-03-20T15:56:48;1.10;;;0.65;;
47764;SDS011;33529;49.242;8.670;2023-03-20T15:59:18;1.67;;;1.00;;
47764;SDS011;33529;49.242;8.670;2023-03-20T16:01:48;1.27;;;0.60;;
47764;SDS011;33529;49.242;8.670;2023-03-20T16:04:16;2.40;;;0.75;;
47764;SDS011;33529;49.242;8.670;2023-03-20T16:06:51;1.48;;;0.68;;
47764;SDS011;33529;49.242;8.670;2023-03-20T16:09:20;1.40;;;0.70;;
47764;SDS011;33529;49.242;8.670;2023-03-20T16:11:47;2.17;;;0.80;;
47764;SDS011;33529;49.242;8.670;2023-03-20T16:14:21;1.88;;;1.05;;
47764;SDS011;33529;49.242;8.670;2023-03-20T16:16:51;2.50;;;0.68;;
47764;SDS011;33529;49.242;8.670;2023-03-20T16:19:20;1.40;;;0.68;;
47764;SDS011;33529;49.242;8.670;2023-03-20T16:21:48;2.65;;;0.70;;
47764;SDS011;33529;49.242;8.670;2023-03-20T16:24:19;1.40;;;0.47;;
47764;SDS011;33529;49.242;8.670;2023-03-20T16:26:51;2.15;;;0.82;;
47764;SDS011;33529;49.242;8.670;2023-03-20T16:29:19;1.83;;;0.98;;
47764;SDS011;33529;49.242;8.670;2023-03-20T16:31:48;1.80;;;0.90;;
47764;SDS011;33529;49.242;8.670;2023-03-20T16:34:21;1.20;;;0.57;;
47764;SDS011;33529;49.242;8.670;2023-03-20T16:36:58;1.65;;;0.77;;
47764;SDS011;33529;49.242;8.670;2023-03-20T16:39:30;1.52;;;0.70;;
47764;SDS011;33529;49.242;8.670;2023-03-20T16:42:01;1.20;;;0.60;;
47764;SDS011;33529;49.242;8.670;2023-03-20T16:44:38;1.55;;;0.70;;
47764;SDS011;33529;49.242;8.670;2023-03-20T16:52:11;2.95;;;1.00;;
47764;SDS011;33529;49.242;8.670;2023-03-20T16:57:13;1.38;;;0.77;;
47764;SDS011;33529;49.242;8.670;2023-03-20T16:59:42;0.93;;;0.50;;
47764;SDS011;33529;49.242;8.670;2023-03-20T17:02:23;1.60;;;0.75;;
47764;SDS011;33529;49.242;8.670;2023-03-20T17:04:54;1.13;;;0.75;;
47764;SDS011;33529;49.242;8.670;2023-03-20T17:07:23;1.77;;;0.77;;
47764;SDS011;33529;49.242;8.670;2023-03-20T17:10:41;1.77;;;0.82;;
47764;SDS011;33529;49.242;8.670;2023-03-20T17:12:44;2.17;;;0.80;;
47764;SDS011;33529;49.242;8.670;2023-03-20T17:15:13;1.13;;;0.65;;
47764;SDS011;33529;49.242;8.670;2023-03-20T17:17:41;1.80;;;0.60;;
47764;SDS011;33529;49.242;8.670;2023-03-20T17:20:23;1.55;;;0.60;;
47764;SDS011;33529;49.242;8.670;2023-03-20T17:22:52;1.05;;;0.73;;
47764;SDS011;33529;49.242;8.670;2023-03-20T17:25:19;1.10;;;0.60;;
47764;SDS011;33529;49.242;8.670;2023-03-20T17:27:46;1.88;;;1.05;;
47764;SDS011;33529;49.242;8.670;2023-03-20T17:32:45;2.10;;;1.05;;
47764;SDS011;33529;49.242;8.670;2023-03-20T17:35:12;1.08;;;0.70;;
47764;SDS011;33529;49.242;8.670;2023-03-20T17:37:40;0.95;;;0.60;;
47764;SDS011;33529;49.242;8.670;2023-03-20T17:40:09;1.15;;;0.60;;
47764;SDS011;33529;49.242;8.670;2023-03-20T17:42:44;1.75;;;0.80;;
47764;SDS011;33529;49.242;8.670;2023-03-20T17:45:12;2.03;;;0.85;;
47764;SDS011;33529;49.242;8.670;2023-03-20T17:47:41;1.63;;;0.77;;
47764;SDS011;33529;49.242;8.670;2023-03-20T17:50:16;2.50;;;0.70;;
47764;SDS011;33529;49.242;8.670;2023-03-20T17:52:49;0.82;;;0.55;;